createdAt,value
2022-08-05T00:00:46.223Z,51.82
2022-08-05T00:03:15.596Z,52.41
2022-08-05T00:06:06.385Z,53.34
2022-08-05T00:08:34.625Z,53.08
2022-08-05T00:11:01.334Z,53.97
2022-08-05T00:13:38.295Z,53.18
2022-08-05T00:16:06.306Z,52.91
2022-08-05T00:18:32.859Z,52.92
2022-08-05T00:20:57.084Z,53.48
2022-08-05T00:23:44.340Z,53.00
2022-08-05T00:26:07.336Z,54.51
2022-08-05T00:28:31.049Z,53.53
2022-08-05T00:30:56.755Z,54.11
2022-08-05T00:34:55.523Z,54.70
2022-08-05T00:36:16.530Z,55.04
2022-08-05T00:38:55.849Z,54.94
2022-08-05T00:41:52.165Z,54.46
2022-08-05T00:44:16.694Z,55.05
2022-08-05T00:46:42.634Z,54.92
2022-08-05T00:49:07.802Z,55.18
2022-08-05T00:51:50.559Z,55.50
2022-08-05T00:54:15.746Z,56.04
2022-08-05T00:56:47.061Z,57.04
2022-08-05T00:59:15.358Z,57.44
2022-08-05T01:01:42.637Z,56.41
2022-08-05T01:04:14.253Z,56.51
2022-08-05T01:06:39.392Z,56.83
2022-08-05T01:09:06.303Z,57.12
2022-08-05T01:11:37.217Z,58.04
2022-08-05T01:14:15.346Z,56.69
2022-08-05T01:16:47.252Z,58.53
2022-08-05T01:19:56.470Z,58.50
2022-08-05T01:22:41.975Z,59.34
2022-08-05T01:25:53.513Z,59.23
2022-08-05T01:28:28.353Z,59.58
2022-08-05T01:30:58.028Z,59.54
2022-08-05T01:33:26.330Z,59.14
2022-08-05T01:35:53.262Z,59.26
2022-08-05T01:38:27.016Z,59.16
2022-08-05T01:40:55.757Z,59.68
2022-08-05T01:43:24.118Z,60.43
2022-08-05T01:45:56.111Z,59.59
2022-08-05T01:48:22.284Z,60.89
2022-08-05T01:50:50.980Z,60.20
2022-08-05T01:53:54.993Z,59.81
2022-08-05T01:56:04.923Z,59.71
2022-08-05T01:58:41.070Z,60.33
2022-08-05T02:01:16.139Z,59.87
2022-08-05T02:03:50.381Z,60.76
2022-08-05T02:06:37.825Z,60.82
2022-08-05T02:08:59.411Z,60.64
2022-08-05T02:11:24.112Z,60.55
2022-08-05T02:14:12.490Z,61.20
2022-08-05T02:16:46.903Z,60.70
2022-08-05T02:19:27.232Z,60.46
2022-08-05T02:21:57.380Z,61.01
2022-08-05T02:24:29.251Z,60.00
2022-08-05T02:26:57.888Z,60.31
2022-08-05T02:29:59.966Z,60.22
2022-08-05T02:32:23.913Z,61.00
2022-08-05T02:34:54.933Z,60.47
2022-08-05T02:37:20.578Z,60.11
2022-08-05T02:39:47.725Z,60.10
2022-08-05T02:42:25.827Z,60.02
2022-08-05T02:44:52.728Z,60.34
2022-08-05T02:47:18.723Z,60.66
2022-08-05T02:49:44.571Z,61.13
2022-08-05T02:52:25.793Z,60.27
2022-08-05T02:54:54.589Z,60.43
2022-08-05T02:58:11.823Z,60.97
2022-08-05T03:00:06.841Z,60.57
2022-08-05T03:02:36.645Z,62.40
2022-08-05T03:05:01.308Z,62.41
2022-08-05T03:08:00.670Z,62.56
2022-08-05T03:10:13.406Z,62.07
2022-08-05T03:12:39.894Z,61.94
2022-08-05T03:15:06.984Z,61.89
2022-08-05T03:17:34.400Z,62.13
2022-08-05T03:20:07.128Z,61.95
2022-08-05T03:22:34.113Z,62.38
2022-08-05T03:25:02.097Z,62.33
2022-08-05T03:27:57.957Z,62.44
2022-08-05T03:30:20.877Z,61.94
2022-08-05T03:32:56.460Z,62.47
2022-08-05T03:35:20.540Z,62.53
2022-08-05T03:37:46.002Z,62.98
2022-08-05T03:40:13.159Z,62.97
2022-08-05T03:42:41.583Z,62.09
2022-08-05T03:45:22.057Z,62.32
2022-08-05T03:47:46.692Z,62.17
2022-08-05T03:50:14.610Z,63.53
2022-08-05T03:55:50.834Z,61.67
2022-08-05T03:56:04.593Z,62.30
2022-08-05T03:58:28.938Z,61.75
2022-08-05T04:00:54.691Z,62.43
2022-08-05T04:03:28.594Z,65.29
2022-08-05T04:05:54.731Z,65.45
2022-08-05T04:08:34.712Z,65.86
2022-08-05T04:11:01.060Z,63.79
2022-08-05T04:13:25.553Z,62.08
2022-08-05T04:16:03.353Z,62.91
2022-08-05T04:18:29.019Z,63.75
2022-08-05T04:20:59.095Z,64.63
2022-08-05T04:24:04.910Z,63.08
2022-08-05T04:26:09.220Z,63.46
2022-08-05T04:28:37.372Z,63.83
2022-08-05T04:31:15.116Z,62.86
2022-08-05T04:34:19.341Z,62.55
2022-08-05T04:36:46.610Z,63.62
2022-08-05T04:39:08.906Z,63.03
2022-08-05T04:41:37.192Z,63.21
2022-08-05T04:44:02.501Z,62.53
2022-08-05T04:46:33.572Z,63.08
2022-08-05T04:48:58.734Z,62.38
2022-08-05T04:51:24.083Z,61.94
2022-08-05T04:53:48.500Z,62.08
2022-08-05T04:56:33.742Z,61.54
2022-08-05T04:58:56.045Z,62.26
2022-08-05T05:02:05.970Z,61.23
2022-08-05T05:04:04.688Z,61.26
2022-08-05T05:06:39.000Z,60.60
2022-08-05T05:09:08.017Z,60.24
2022-08-05T05:11:41.593Z,60.87
2022-08-05T05:14:16.319Z,60.48
2022-08-05T05:16:40.071Z,58.73
2022-08-05T05:19:18.671Z,58.26
2022-08-05T05:21:44.759Z,58.25
2022-08-05T05:24:10.409Z,60.03
2022-08-05T05:26:34.954Z,59.91
2022-08-05T05:28:59.332Z,60.04
2022-08-05T05:31:23.277Z,60.48
2022-08-05T05:33:59.697Z,59.54
2022-08-05T05:36:25.612Z,59.45
2022-08-05T05:38:54.033Z,60.23
2022-08-05T05:41:18.520Z,60.24
2022-08-05T05:43:56.872Z,59.73
2022-08-05T05:46:24.180Z,59.25
2022-08-05T05:48:49.172Z,60.08
2022-08-05T05:51:15.587Z,59.32
2022-08-05T05:53:54.323Z,59.10
2022-08-05T05:56:26.200Z,58.76
2022-08-05T05:58:57.217Z,58.33
2022-08-05T06:01:30.374Z,59.49
2022-08-05T06:04:03.938Z,59.65
2022-08-05T06:06:31.029Z,61.08
2022-08-05T06:08:55.200Z,61.87
2022-08-05T06:11:19.315Z,62.56
2022-08-05T06:13:50.533Z,62.06
2022-08-05T06:16:28.192Z,62.03
2022-08-05T06:18:55.831Z,62.47
2022-08-05T06:21:23.871Z,62.50
2022-08-05T06:24:00.085Z,63.42
2022-08-05T06:26:25.436Z,64.08
2022-08-05T06:28:57.094Z,63.96
2022-08-05T06:31:22.028Z,64.34
2022-08-05T06:34:07.263Z,64.58
2022-08-05T06:36:30.015Z,62.41
2022-08-05T06:39:13.847Z,62.87
2022-08-05T06:41:41.287Z,62.79
2022-08-05T06:44:06.820Z,62.05
2022-08-05T06:46:30.727Z,64.41
2022-08-05T06:48:58.856Z,60.10
2022-08-05T06:51:29.084Z,60.43
2022-08-05T06:53:54.088Z,59.20
2022-08-05T06:56:26.313Z,58.31
2022-08-05T06:58:50.684Z,58.85
2022-08-05T07:01:15.863Z,57.82
2022-08-05T07:03:44.880Z,58.14
2022-08-05T07:06:14.422Z,57.86
2022-08-05T07:08:39.015Z,57.92
2022-08-05T07:11:06.229Z,57.84
2022-08-05T07:13:59.839Z,57.52
2022-08-05T07:18:01.402Z,59.23
2022-08-05T07:20:05.819Z,58.83
2022-08-05T07:22:10.688Z,58.90
2022-08-05T07:24:43.721Z,59.19
2022-08-05T07:27:16.049Z,58.54
2022-08-05T07:30:23.909Z,59.05
2022-08-05T07:32:26.291Z,59.57
2022-08-05T07:34:50.187Z,58.87
2022-08-05T07:37:21.872Z,59.89
2022-08-05T07:40:27.050Z,59.10
2022-08-05T07:42:33.776Z,60.38
2022-08-05T07:44:57.796Z,59.72
2022-08-05T07:47:25.827Z,59.75
2022-08-05T07:49:54.216Z,60.20
2022-08-05T07:52:18.419Z,61.94
2022-08-05T07:54:47.625Z,61.24
2022-08-05T07:57:50.581Z,62.38
2022-08-05T07:59:57.788Z,62.80
2022-08-05T08:02:31.241Z,63.93
2022-08-05T08:05:12.533Z,64.25
2022-08-05T08:07:39.425Z,65.63
2022-08-05T08:10:03.768Z,64.03
2022-08-05T08:12:37.959Z,65.75
2022-08-05T08:15:15.842Z,67.41
2022-08-05T08:17:46.261Z,66.77
2022-08-05T08:20:42.795Z,67.47
2022-08-05T08:23:03.299Z,66.95
2022-08-05T08:26:00.031Z,66.17
2022-08-05T08:28:18.779Z,66.95
2022-08-05T08:30:56.868Z,68.54
2022-08-05T08:33:22.776Z,70.14
2022-08-05T08:35:52.691Z,69.40
2022-08-05T08:38:18.247Z,67.98
2022-08-05T08:41:01.099Z,68.63
2022-08-05T08:45:17.009Z,69.44
2022-08-05T08:46:15.645Z,68.47
2022-08-05T08:49:06.077Z,69.24
2022-08-05T08:52:03.127Z,67.48
2022-08-05T08:54:17.556Z,67.71
2022-08-05T08:56:47.907Z,69.50
2022-08-05T08:59:19.333Z,69.01
2022-08-05T09:01:44.929Z,66.65
2022-08-05T09:04:23.185Z,67.38
2022-08-05T09:06:54.565Z,67.13
2022-08-05T09:09:18.373Z,67.58
2022-08-05T09:11:53.091Z,68.16
2022-08-05T09:14:57.953Z,68.96
2022-08-05T09:17:09.448Z,68.04
2022-08-05T09:20:01.826Z,68.60
2022-08-05T09:22:31.810Z,70.02
2022-08-05T09:25:00.423Z,70.81
2022-08-05T09:28:04.081Z,70.03
2022-08-05T09:30:19.122Z,70.08
2022-08-05T09:32:47.376Z,69.37
2022-08-05T09:35:26.303Z,69.21
2022-08-05T09:38:16.459Z,68.28
2022-08-05T09:40:51.857Z,68.80
2022-08-05T09:43:40.588Z,67.30
2022-08-05T09:46:11.975Z,67.56
2022-08-05T09:48:39.716Z,66.43
2022-08-05T09:51:15.352Z,67.13
2022-08-05T09:53:54.327Z,66.80
2022-08-05T09:56:27.092Z,67.51
2022-08-05T09:59:04.093Z,67.75
2022-08-05T10:01:32.595Z,68.05
2022-08-05T10:04:00.434Z,68.97
2022-08-05T10:06:25.821Z,69.46
2022-08-05T10:08:50.291Z,68.81
2022-08-05T10:11:18.968Z,68.52
2022-08-05T10:13:47.836Z,70.67
2022-08-05T10:16:33.975Z,68.37
2022-08-05T10:18:58.489Z,71.24
2022-08-05T10:21:23.020Z,71.70
2022-08-05T10:23:59.375Z,71.48
2022-08-05T10:26:32.759Z,71.17
2022-08-05T10:28:57.798Z,68.60
2022-08-05T10:32:53.603Z,71.48
2022-08-05T10:34:08.144Z,69.87
2022-08-05T10:36:32.190Z,71.60
2022-08-05T10:39:10.305Z,68.77
2022-08-05T10:41:47.805Z,70.48
2022-08-05T10:44:15.012Z,67.67
2022-08-05T10:46:50.945Z,67.03
2022-08-05T10:49:18.647Z,67.50
2022-08-05T10:52:00.237Z,67.90
2022-08-05T10:54:56.786Z,65.00
2022-08-05T10:57:31.701Z,67.21
2022-08-05T11:00:19.842Z,64.06
2022-08-05T11:03:24.419Z,60.83
2022-08-05T11:06:15.450Z,60.45
2022-08-05T11:09:16.723Z,59.41
2022-08-05T11:11:52.811Z,58.82
2022-08-05T11:14:57.886Z,62.13
2022-08-05T11:17:58.705Z,57.06
2022-08-05T11:20:41.756Z,57.55
2022-08-05T11:24:04.787Z,54.54
2022-08-05T11:26:28.857Z,53.36
2022-08-05T11:29:06.854Z,59.02
2022-08-05T11:31:58.660Z,54.48
2022-08-05T11:34:38.485Z,56.44
2022-08-05T11:37:02.569Z,53.96
2022-08-05T11:39:55.259Z,49.91
2022-08-05T11:42:28.018Z,51.50
2022-08-05T11:44:56.336Z,51.40
2022-08-05T11:47:49.340Z,51.63
2022-08-05T11:50:09.983Z,49.34
2022-08-05T11:52:38.289Z,50.62
2022-08-05T11:55:07.603Z,52.16
2022-08-05T11:57:39.331Z,49.46
2022-08-05T12:00:30.421Z,48.83
2022-08-05T12:02:54.385Z,48.86
2022-08-05T12:05:36.382Z,49.92
2022-08-05T12:08:11.254Z,49.81
2022-08-05T12:10:43.839Z,44.65
2022-08-05T12:13:15.491Z,45.85
2022-08-05T12:15:45.342Z,45.36
2022-08-05T12:18:20.559Z,46.54
2022-08-05T12:20:44.543Z,47.75
2022-08-05T12:23:10.483Z,46.24
2022-08-05T12:25:50.343Z,45.05
2022-08-05T12:28:15.089Z,46.19
2022-08-05T12:30:45.715Z,42.33
2022-08-05T12:33:27.806Z,41.08
2022-08-05T12:35:53.999Z,43.89
2022-08-05T12:38:18.016Z,44.65
2022-08-05T12:40:46.286Z,43.30
2022-08-05T12:43:10.037Z,46.13
2022-08-05T12:45:42.724Z,43.03
2022-08-05T12:48:27.369Z,40.72
2022-08-05T12:52:10.299Z,42.73
2022-08-05T12:54:03.325Z,46.72
2022-08-05T12:56:35.405Z,43.86
2022-08-05T12:59:21.121Z,43.18
2022-08-05T13:02:07.354Z,42.67
2022-08-05T13:04:34.752Z,43.12
2022-08-05T13:07:10.931Z,39.92
2022-08-05T13:09:41.268Z,41.15
2022-08-05T13:12:16.101Z,42.78
2022-08-05T13:14:42.617Z,40.72
2022-08-05T13:17:11.487Z,42.02
2022-08-05T13:19:51.631Z,44.10
2022-08-05T13:22:28.503Z,41.67
2022-08-05T13:24:58.113Z,43.29
2022-08-05T13:27:37.458Z,43.35
2022-08-05T13:30:34.254Z,44.15
2022-08-05T13:32:50.616Z,44.00
2022-08-05T13:35:31.333Z,44.09
2022-08-05T13:38:04.866Z,45.22
2022-08-05T13:40:47.977Z,45.28
2022-08-05T13:43:13.759Z,45.75
2022-08-05T13:45:45.990Z,46.60
2022-08-05T13:48:57.792Z,47.19
2022-08-05T13:50:56.204Z,45.99
2022-08-05T13:53:20.312Z,45.71
2022-08-05T13:55:50.104Z,45.50
2022-08-05T13:58:30.972Z,45.48
2022-08-05T14:00:54.977Z,45.62
2022-08-05T14:03:18.693Z,46.72
2022-08-05T14:06:24.595Z,46.06
2022-08-05T14:08:27.468Z,46.66
2022-08-05T14:10:52.101Z,46.36
2022-08-05T14:13:16.284Z,47.06
2022-08-05T14:16:08.865Z,45.99
2022-08-05T14:18:24.183Z,45.03
2022-08-05T14:20:48.683Z,46.34
2022-08-05T14:23:12.616Z,44.58
2022-08-05T14:25:45.100Z,44.51
2022-08-05T14:28:09.145Z,44.84
2022-08-05T14:30:49.867Z,45.54
2022-08-05T14:33:22.872Z,45.37
2022-08-05T14:35:51.918Z,44.99
2022-08-05T14:38:32.558Z,45.41
2022-08-05T14:41:01.129Z,44.99
2022-08-05T14:43:59.243Z,45.54
2022-08-05T14:46:08.860Z,45.88
2022-08-05T14:48:33.756Z,45.91
2022-08-05T14:50:57.852Z,46.33
2022-08-05T14:53:21.636Z,46.35
2022-08-05T14:55:52.091Z,46.89
2022-08-05T14:58:17.796Z,46.51
2022-08-05T15:00:59.467Z,46.28
2022-08-05T15:03:24.011Z,48.09
2022-08-05T15:06:06.907Z,48.50
2022-08-05T15:08:37.967Z,48.68
2022-08-05T15:11:16.058Z,48.44
2022-08-05T15:13:46.049Z,49.71
2022-08-05T15:16:14.404Z,50.35
2022-08-05T15:18:38.630Z,50.90
2022-08-05T15:21:07.400Z,52.94
2022-08-05T15:23:31.756Z,52.17
2022-08-05T15:25:59.724Z,52.51
2022-08-05T15:28:27.335Z,52.67
2022-08-05T15:30:53.595Z,52.89
2022-08-05T15:34:04.126Z,56.63
2022-08-05T15:36:03.622Z,56.68
2022-08-05T15:38:34.708Z,57.28
2022-08-05T15:41:22.322Z,58.96
2022-08-05T15:43:45.935Z,58.44
2022-08-05T15:46:12.316Z,58.71
2022-08-05T15:48:36.779Z,59.74
2022-08-05T15:51:03.601Z,59.50
2022-08-05T15:53:38.293Z,59.45
2022-08-05T15:56:14.417Z,57.97
2022-08-05T15:58:38.232Z,59.85
2022-08-05T16:01:11.560Z,58.90
2022-08-05T16:03:42.678Z,59.24
2022-08-05T16:06:07.211Z,58.20
2022-08-05T16:08:35.551Z,59.52
2022-08-05T16:10:59.552Z,58.99
2022-08-05T16:13:24.102Z,59.52
2022-08-05T16:15:58.005Z,59.12
2022-08-05T16:18:21.792Z,58.89
2022-08-05T16:20:54.147Z,59.80
2022-08-05T16:23:17.830Z,60.58
2022-08-05T16:25:41.647Z,61.25
2022-08-05T16:28:06.579Z,63.18
2022-08-05T16:30:34.220Z,63.92
2022-08-05T16:33:00.567Z,63.23
2022-08-05T16:35:27.567Z,63.91
2022-08-05T16:38:15.643Z,62.02
2022-08-05T16:40:37.722Z,63.44
2022-08-05T16:43:01.484Z,63.28
2022-08-05T16:46:03.790Z,63.12
2022-08-05T16:48:10.884Z,62.33
2022-08-05T16:50:49.388Z,62.96
2022-08-05T16:53:22.971Z,62.69
2022-08-05T16:55:56.381Z,61.59
2022-08-05T16:58:20.552Z,63.38
2022-08-05T17:00:44.366Z,61.93
2022-08-05T17:03:19.798Z,62.75
2022-08-05T17:05:44.152Z,63.77
2022-08-05T17:08:16.903Z,62.79
2022-08-05T17:11:00.416Z,62.95
2022-08-05T17:13:37.278Z,63.28
2022-08-05T17:16:28.114Z,63.25
2022-08-05T17:18:49.911Z,65.04
2022-08-05T17:21:13.640Z,63.47
2022-08-05T17:24:04.664Z,63.01
2022-08-05T17:26:24.697Z,64.90
2022-08-05T17:28:50.845Z,65.00
2022-08-05T17:31:24.658Z,68.98
2022-08-05T17:33:58.466Z,72.42
2022-08-05T17:36:33.682Z,72.36
2022-08-05T17:39:01.619Z,72.42
2022-08-05T17:42:18.901Z,74.91
2022-08-05T17:44:11.145Z,72.62
2022-08-05T17:46:35.016Z,72.93
2022-08-05T17:48:59.238Z,73.75
2022-08-05T17:51:23.196Z,74.00
2022-08-05T17:53:54.473Z,73.76
2022-08-05T17:56:20.016Z,74.06
2022-08-05T17:58:46.366Z,74.99
2022-08-05T18:01:10.192Z,73.58
2022-08-05T18:04:03.785Z,74.26
2022-08-05T18:06:18.475Z,74.18
2022-08-05T18:08:53.115Z,73.12
2022-08-05T18:11:24.550Z,72.30
2022-08-05T18:13:56.572Z,73.73
2022-08-05T18:16:23.493Z,71.98
2022-08-05T18:18:48.070Z,72.46
2022-08-05T18:21:19.959Z,72.02
2022-08-05T18:23:45.628Z,73.75
2022-08-05T18:26:10.733Z,73.35
2022-08-05T18:28:35.920Z,72.90
2022-08-05T18:30:59.760Z,72.25
2022-08-05T18:33:24.332Z,73.30
2022-08-05T18:35:59.971Z,71.79
2022-08-05T18:38:27.872Z,72.50
2022-08-05T18:41:57.226Z,72.23
2022-08-05T18:43:43.106Z,72.30
2022-08-05T18:46:12.736Z,72.45
2022-08-05T18:48:36.779Z,74.11
2022-08-05T18:52:02.937Z,71.98
2022-08-05T18:54:07.167Z,72.78
2022-08-05T18:56:32.684Z,71.81
2022-08-05T18:59:01.237Z,71.95
2022-08-05T19:01:33.212Z,71.92
2022-08-05T19:03:57.515Z,70.56
2022-08-05T19:06:22.400Z,72.08
2022-08-05T19:08:58.159Z,71.09
2022-08-05T19:11:28.532Z,71.23
2022-08-05T19:14:15.196Z,70.51
2022-08-05T19:16:47.289Z,70.08
2022-08-05T19:19:11.144Z,70.08
2022-08-05T19:21:36.742Z,70.29
2022-08-05T19:24:07.482Z,70.34
2022-08-05T19:26:32.976Z,67.71
2022-08-05T19:28:57.308Z,69.25
2022-08-05T19:31:22.888Z,68.60
2022-08-05T19:33:48.550Z,68.98
2022-08-05T19:36:20.716Z,67.75
2022-08-05T19:38:45.827Z,67.24
2022-08-05T19:41:12.331Z,68.51
2022-08-05T19:44:05.375Z,69.22
2022-08-05T19:46:29.460Z,68.87
2022-08-05T19:48:54.568Z,70.27
2022-08-05T19:52:04.524Z,69.94
2022-08-05T19:54:12.893Z,69.71
2022-08-05T19:56:50.821Z,69.48
2022-08-05T19:59:51.577Z,69.97
2022-08-05T20:02:01.476Z,69.05
2022-08-05T20:04:26.579Z,69.31
2022-08-05T20:06:51.820Z,69.66
2022-08-05T20:09:15.795Z,69.86
2022-08-05T20:11:41.303Z,71.16
2022-08-05T20:14:14.668Z,69.59
2022-08-05T20:16:42.017Z,71.91
2022-08-05T20:19:08.652Z,69.98
2022-08-05T20:21:32.541Z,69.78
2022-08-05T20:23:57.384Z,70.19
2022-08-05T20:26:22.091Z,70.12
2022-08-05T20:28:48.698Z,70.63
2022-08-05T20:31:12.617Z,72.37
2022-08-05T20:33:36.390Z,71.27
2022-08-05T20:36:02.284Z,70.59
2022-08-05T20:38:27.335Z,72.30
2022-08-05T20:40:52.592Z,71.00
2022-08-05T20:43:33.265Z,71.14
2022-08-05T20:46:03.301Z,71.16
2022-08-05T20:48:27.012Z,72.14
2022-08-05T20:50:50.914Z,71.83
2022-08-05T20:53:36.531Z,72.07
2022-08-05T20:56:08.838Z,72.52
2022-08-05T20:58:33.196Z,72.22
2022-08-05T21:00:57.069Z,72.33
2022-08-05T21:03:20.921Z,71.18
2022-08-05T21:05:53.505Z,72.88
2022-08-05T21:08:20.108Z,72.16
2022-08-05T21:10:48.990Z,73.75
2022-08-05T21:13:15.905Z,71.95
2022-08-05T21:15:40.985Z,71.91
2022-08-05T21:18:08.340Z,70.94
2022-08-05T21:20:34.927Z,73.96
2022-08-05T21:22:59.473Z,73.00
2022-08-05T21:25:25.420Z,73.51
2022-08-05T21:27:57.918Z,73.55
2022-08-05T21:30:22.039Z,74.24
2022-08-05T21:32:47.756Z,75.41
2022-08-05T21:35:18.126Z,74.18
2022-08-05T21:37:53.948Z,74.61
2022-08-05T21:40:17.712Z,74.61
2022-08-05T21:42:45.137Z,74.31
2022-08-05T21:45:10.762Z,73.74
2022-08-05T21:47:56.125Z,74.12
2022-08-05T21:50:20.362Z,74.02
2022-08-05T21:52:47.406Z,74.05
2022-08-05T21:55:11.695Z,74.69
2022-08-05T21:57:42.782Z,75.46
2022-08-05T22:00:12.257Z,74.03
2022-08-05T22:02:38.984Z,75.24
2022-08-05T22:05:04.312Z,74.88
2022-08-05T22:07:39.439Z,74.74
2022-08-05T22:10:12.353Z,76.18
2022-08-05T22:12:40.310Z,76.24
2022-08-05T22:15:16.587Z,75.05
2022-08-05T22:17:56.324Z,76.44
2022-08-05T22:20:23.682Z,76.29
2022-08-05T22:23:16.927Z,76.29
2022-08-05T22:26:11.366Z,76.84
2022-08-05T22:28:35.668Z,76.23
2022-08-05T22:31:05.578Z,76.55
2022-08-05T22:33:57.050Z,76.10
2022-08-05T22:36:15.038Z,76.97
2022-08-05T22:38:39.196Z,75.66
2022-08-05T22:41:09.550Z,77.01
2022-08-05T22:43:36.884Z,75.71
2022-08-05T22:46:08.826Z,75.79
2022-08-05T22:48:38.016Z,78.23
2022-08-05T22:51:01.929Z,77.33
2022-08-05T22:53:35.607Z,78.24
2022-08-05T22:55:59.906Z,77.99
2022-08-05T22:58:28.457Z,77.98
2022-08-05T23:00:52.565Z,76.47
2022-08-05T23:03:22.251Z,76.86
2022-08-05T23:06:06.180Z,78.26
2022-08-05T23:08:30.719Z,76.93
2022-08-05T23:10:56.073Z,76.75
2022-08-05T23:13:19.852Z,77.38
2022-08-05T23:15:43.859Z,76.72
2022-08-05T23:18:16.076Z,75.82
2022-08-05T23:20:43.040Z,76.35
2022-08-05T23:23:09.010Z,76.72
2022-08-05T23:25:52.568Z,76.53
2022-08-05T23:28:17.269Z,74.45
2022-08-05T23:30:43.831Z,75.79
2022-08-05T23:33:16.335Z,75.03
2022-08-05T23:35:52.006Z,74.96
2022-08-05T23:38:19.199Z,74.06
2022-08-05T23:40:49.843Z,74.17
2022-08-05T23:43:24.773Z,73.68
2022-08-05T23:45:58.025Z,72.83
2022-08-05T23:48:22.419Z,73.75
2022-08-05T23:50:51.528Z,72.89
2022-08-05T23:53:22.974Z,73.63
2022-08-05T23:55:47.056Z,73.42
2022-08-05T23:58:31.678Z,73.52
